sensor_id;sensor_type;location;lat;lon;timestamp;pressure;altitude;pressure_sealevel;temperature;humidity
74346;BME280;62776;50.518;6.732;2022-08-25T00:00:43;96771.56;;;21.05;49.22
74346;BME280;62776;50.518;6.732;2022-08-25T00:03:29;96774.13;;;21.06;49.08
74346;BME280;62776;50.518;6.732;2022-08-25T00:06:15;96771.50;;;21.06;48.95
74346;BME280;62776;50.518;6.732;2022-08-25T00:09:02;96781.16;;;21.07;48.93
74346;BME280;62776;50.518;6.732;2022-08-25T00:11:48;96772.41;;;21.05;48.79
74346;BME280;62776;50.518;6.732;2022-08-25T00:14:35;96779.56;;;21.03;49.05
74346;BME280;62776;50.518;6.732;2022-08-25T00:17:22;96775.28;;;21.01;48.64
74346;BME280;62776;50.518;6.732;2022-08-25T00:20:08;96777.84;;;21.02;49.00
74346;BME280;62776;50.518;6.732;2022-08-25T00:22:54;96776.97;;;21.02;48.68
74346;BME280;62776;50.518;6.732;2022-08-25T00:25:40;96774.47;;;20.99;49.63
74346;BME280;62776;50.518;6.732;2022-08-25T00:28:26;96779.00;;;20.97;49.70
74346;BME280;62776;50.518;6.732;2022-08-25T00:31:15;96774.81;;;20.93;49.34
74346;BME280;62776;50.518;6.732;2022-08-25T00:34:03;96767.00;;;20.90;49.73
74346;BME280;62776;50.518;6.732;2022-08-25T00:36:52;96772.44;;;20.87;50.05
74346;BME280;62776;50.518;6.732;2022-08-25T00:39:38;96759.44;;;20.82;50.19
74346;BME280;62776;50.518;6.732;2022-08-25T00:42:24;96767.59;;;20.78;50.19
74346;BME280;62776;50.518;6.732;2022-08-25T00:45:10;96772.09;;;20.76;50.62
74346;BME280;62776;50.518;6.732;2022-08-25T00:47:57;96773.00;;;20.75;50.47
74346;BME280;62776;50.518;6.732;2022-08-25T00:50:43;96768.94;;;20.68;51.47
74346;BME280;62776;50.518;6.732;2022-08-25T00:53:29;96774.28;;;20.66;51.38
74346;BME280;62776;50.518;6.732;2022-08-25T00:56:15;96768.19;;;20.66;51.37
74346;BME280;62776;50.518;6.732;2022-08-25T00:59:03;96765.59;;;20.64;51.50
74346;BME280;62776;50.518;6.732;2022-08-25T01:01:49;96769.09;;;20.65;51.56
74346;BME280;62776;50.518;6.732;2022-08-25T01:04:36;96765.59;;;20.64;51.41
74346;BME280;62776;50.518;6.732;2022-08-25T01:07:22;96769.09;;;20.65;51.68
74346;BME280;62776;50.518;6.732;2022-08-25T01:10:08;96764.88;;;20.60;51.72
74346;BME280;62776;50.518;6.732;2022-08-25T01:12:57;96766.00;;;20.55;51.54
74346;BME280;62776;50.518;6.732;2022-08-25T01:15:45;96762.59;;;20.53;51.79
74346;BME280;62776;50.518;6.732;2022-08-25T01:18:50;96754.75;;;20.51;51.94
74346;BME280;62776;50.518;6.732;2022-08-25T01:21:41;96753.44;;;20.41;51.60
74346;BME280;62776;50.518;6.732;2022-08-25T01:27:13;96756.81;;;20.45;51.60
74346;BME280;62776;50.518;6.732;2022-08-25T01:29:59;96755.16;;;20.42;51.72
74346;BME280;62776;50.518;6.732;2022-08-25T01:32:45;96762.16;;;20.43;51.76
74346;BME280;62776;50.518;6.732;2022-08-25T01:35:32;96758.03;;;20.38;52.12
74346;BME280;62776;50.518;6.732;2022-08-25T01:38:18;96751.03;;;20.37;52.59
74346;BME280;62776;50.518;6.732;2022-08-25T01:41:05;96758.22;;;20.33;52.38
74346;BME280;62776;50.518;6.732;2022-08-25T01:43:51;96755.84;;;20.27;53.03
74346;BME280;62776;50.518;6.732;2022-08-25T01:46:37;96756.94;;;20.22;52.15
74346;BME280;62776;50.518;6.732;2022-08-25T01:49:23;96756.88;;;20.23;52.70
74346;BME280;62776;50.518;6.732;2022-08-25T01:52:44;96753.59;;;20.18;53.38
74346;BME280;62776;50.518;6.732;2022-08-25T01:55:21;96760.88;;;20.13;53.10
74346;BME280;62776;50.518;6.732;2022-08-25T01:58:07;96759.28;;;20.09;53.18
74346;BME280;62776;50.518;6.732;2022-08-25T02:00:54;96763.66;;;20.10;52.86
74346;BME280;62776;50.518;6.732;2022-08-25T02:03:43;96761.00;;;20.10;53.13
74346;BME280;62776;50.518;6.732;2022-08-25T02:06:30;96756.78;;;20.06;53.18
74346;BME280;62776;50.518;6.732;2022-08-25T02:09:17;96758.28;;;20.12;52.85
74346;BME280;62776;50.518;6.732;2022-08-25T02:12:03;96766.81;;;20.18;52.36
74346;BME280;62776;50.518;6.732;2022-08-25T02:14:49;96760.41;;;20.24;51.86
74346;BME280;62776;50.518;6.732;2022-08-25T02:17:35;96769.84;;;20.29;51.95
74346;BME280;62776;50.518;6.732;2022-08-25T02:20:21;96762.84;;;20.28;52.21
74346;BME280;62776;50.518;6.732;2022-08-25T02:23:08;96768.25;;;20.25;52.60
74346;BME280;62776;50.518;6.732;2022-08-25T02:25:55;96766.56;;;20.24;52.44
74346;BME280;62776;50.518;6.732;2022-08-25T02:28:42;96770.09;;;20.23;52.67
74346;BME280;62776;50.518;6.732;2022-08-25T02:31:28;96754.38;;;20.20;52.83
74346;BME280;62776;50.518;6.732;2022-08-25T02:34:15;96760.66;;;20.18;52.78
74346;BME280;62776;50.518;6.732;2022-08-25T02:37:01;96758.38;;;20.10;52.88
74346;BME280;62776;50.518;6.732;2022-08-25T02:39:47;96753.09;;;20.10;53.16
74346;BME280;62776;50.518;6.732;2022-08-25T02:42:33;96754.13;;;20.06;53.22
74346;BME280;62776;50.518;6.732;2022-08-25T02:45:19;96741.16;;;20.01;53.33
74346;BME280;62776;50.518;6.732;2022-08-25T02:48:05;96745.72;;;19.98;53.74
74346;BME280;62776;50.518;6.732;2022-08-25T02:50:51;96737.28;;;19.90;54.04
74346;BME280;62776;50.518;6.732;2022-08-25T02:53:38;96737.66;;;19.81;53.84
74346;BME280;62776;50.518;6.732;2022-08-25T02:56:25;96736.97;;;19.77;53.72
74346;BME280;62776;50.518;6.732;2022-08-25T02:59:11;96738.63;;;19.80;53.74
74346;BME280;62776;50.518;6.732;2022-08-25T03:01:57;96729.88;;;19.78;53.78
74346;BME280;62776;50.518;6.732;2022-08-25T03:04:43;96726.34;;;19.79;53.68
74346;BME280;62776;50.518;6.732;2022-08-25T03:07:29;96721.00;;;19.80;53.39
74346;BME280;62776;50.518;6.732;2022-08-25T03:10:16;96724.28;;;19.85;53.47
74346;BME280;62776;50.518;6.732;2022-08-25T03:13:03;96713.88;;;19.82;53.67
74346;BME280;62776;50.518;6.732;2022-08-25T03:15:49;96719.34;;;19.78;54.29
74346;BME280;62776;50.518;6.732;2022-08-25T03:18:35;96717.91;;;19.71;54.67
74346;BME280;62776;50.518;6.732;2022-08-25T03:21:21;96716.59;;;19.61;54.43
74346;BME280;62776;50.518;6.732;2022-08-25T03:24:07;96717.50;;;19.60;54.52
74346;BME280;62776;50.518;6.732;2022-08-25T03:26:53;96714.88;;;19.60;54.25
74346;BME280;62776;50.518;6.732;2022-08-25T03:29:40;96717.72;;;19.55;55.10
74346;BME280;62776;50.518;6.732;2022-08-25T03:32:28;96711.72;;;19.52;55.13
74346;BME280;62776;50.518;6.732;2022-08-25T03:35:16;96706.69;;;19.46;55.78
74346;BME280;62776;50.518;6.732;2022-08-25T03:38:02;96700.84;;;19.39;55.64
74346;BME280;62776;50.518;6.732;2022-08-25T03:40:48;96692.94;;;19.37;55.97
74346;BME280;62776;50.518;6.732;2022-08-25T03:43:34;96685.28;;;19.31;55.98
74346;BME280;62776;50.518;6.732;2022-08-25T03:46:23;96683.66;;;19.29;55.81
74346;BME280;62776;50.518;6.732;2022-08-25T03:49:11;96679.38;;;19.26;56.03
74346;BME280;62776;50.518;6.732;2022-08-25T03:51:57;96682.78;;;19.28;56.11
74346;BME280;62776;50.518;6.732;2022-08-25T03:54:44;96688.06;;;19.28;55.97
74346;BME280;62776;50.518;6.732;2022-08-25T03:57:30;96695.97;;;19.28;56.14
74346;BME280;62776;50.518;6.732;2022-08-25T04:00:16;96681.97;;;19.28;56.39
74346;BME280;62776;50.518;6.732;2022-08-25T04:03:02;96687.34;;;19.25;56.37
74346;BME280;62776;50.518;6.732;2022-08-25T04:05:48;96691.09;;;19.19;56.85
74346;BME280;62776;50.518;6.732;2022-08-25T04:08:34;96686.00;;;19.15;56.75
74346;BME280;62776;50.518;6.732;2022-08-25T04:11:24;96687.06;;;19.11;57.20
74346;BME280;62776;50.518;6.732;2022-08-25T04:14:10;96690.69;;;19.08;57.15
74346;BME280;62776;50.518;6.732;2022-08-25T04:16:56;96690.75;;;19.07;57.39
74346;BME280;62776;50.518;6.732;2022-08-25T04:19:42;96691.69;;;19.06;57.65
74346;BME280;62776;50.518;6.732;2022-08-25T04:22:28;96703.13;;;19.05;57.60
74346;BME280;62776;50.518;6.732;2022-08-25T04:25:15;96699.63;;;19.04;57.80
74346;BME280;62776;50.518;6.732;2022-08-25T04:28:01;96696.22;;;19.02;57.73
74346;BME280;62776;50.518;6.732;2022-08-25T04:30:47;96697.19;;;19.00;57.88
74346;BME280;62776;50.518;6.732;2022-08-25T04:33:34;96691.97;;;18.98;58.06
74346;BME280;62776;50.518;6.732;2022-08-25T04:36:20;96697.41;;;18.95;58.21
74346;BME280;62776;50.518;6.732;2022-08-25T04:39:07;96691.19;;;18.96;57.91
74346;BME280;62776;50.518;6.732;2022-08-25T04:41:53;96692.13;;;18.95;57.99
74346;BME280;62776;50.518;6.732;2022-08-25T04:44:39;96680.66;;;18.96;57.62
74346;BME280;62776;50.518;6.732;2022-08-25T04:47:25;96684.94;;;18.99;57.71
74346;BME280;62776;50.518;6.732;2022-08-25T04:50:11;96694.56;;;19.00;57.62
74346;BME280;62776;50.518;6.732;2022-08-25T04:52:57;96682.13;;;19.03;57.77
74346;BME280;62776;50.518;6.732;2022-08-25T04:55:44;96680.28;;;19.05;57.65
74346;BME280;62776;50.518;6.732;2022-08-25T04:58:30;96681.19;;;19.04;57.66
74346;BME280;62776;50.518;6.732;2022-08-25T05:01:19;96673.16;;;19.07;57.47
74346;BME280;62776;50.518;6.732;2022-08-25T05:10:04;96666.41;;;19.22;57.24
74346;BME280;62776;50.518;6.732;2022-08-25T05:12:50;96663.44;;;19.29;56.89
74346;BME280;62776;50.518;6.732;2022-08-25T05:15:36;96665.03;;;19.33;56.58
74346;BME280;62776;50.518;6.732;2022-08-25T05:18:35;96660.44;;;19.38;56.73
74346;BME280;62776;50.518;6.732;2022-08-25T05:21:22;96652.28;;;19.45;56.88
74346;BME280;62776;50.518;6.732;2022-08-25T05:24:09;96653.84;;;19.49;57.01
74346;BME280;62776;50.518;6.732;2022-08-25T05:26:55;96651.66;;;19.58;56.62
74346;BME280;62776;50.518;6.732;2022-08-25T05:29:41;96651.44;;;19.63;56.85
74346;BME280;62776;50.518;6.732;2022-08-25T05:32:27;96640.63;;;19.69;56.92
74346;BME280;62776;50.518;6.732;2022-08-25T05:35:13;96644.78;;;19.74;56.49
74346;BME280;62776;50.518;6.732;2022-08-25T05:38:01;96644.44;;;19.82;56.69
74346;BME280;62776;50.518;6.732;2022-08-25T05:40:52;96640.56;;;19.89;56.58
74346;BME280;62776;50.518;6.732;2022-08-25T05:43:41;96639.38;;;19.96;56.68
74346;BME280;62776;50.518;6.732;2022-08-25T05:46:28;96641.59;;;20.05;56.63
74346;BME280;62776;50.518;6.732;2022-08-25T05:49:14;96641.94;;;20.16;55.97
74346;BME280;62776;50.518;6.732;2022-08-25T05:52:00;96635.25;;;20.28;55.63
74346;BME280;62776;50.518;6.732;2022-08-25T05:54:46;96643.53;;;20.39;55.43
74346;BME280;62776;50.518;6.732;2022-08-25T05:57:33;96644.66;;;20.52;54.57
74346;BME280;62776;50.518;6.732;2022-08-25T06:00:19;96647.34;;;20.69;54.07
74346;BME280;62776;50.518;6.732;2022-08-25T06:03:05;96640.31;;;20.87;53.28
74346;BME280;62776;50.518;6.732;2022-08-25T06:05:51;96629.97;;;20.99;52.98
74346;BME280;62776;50.518;6.732;2022-08-25T06:08:37;96632.75;;;21.15;52.19
74346;BME280;62776;50.518;6.732;2022-08-25T06:11:23;96639.91;;;21.30;51.75
74346;BME280;62776;50.518;6.732;2022-08-25T06:14:10;96633.03;;;21.43;51.16
74346;BME280;62776;50.518;6.732;2022-08-25T06:16:56;96644.78;;;21.55;51.20
74346;BME280;62776;50.518;6.732;2022-08-25T06:19:42;96644.97;;;21.67;50.71
74346;BME280;62776;50.518;6.732;2022-08-25T06:22:29;96648.06;;;21.75;50.79
74346;BME280;62776;50.518;6.732;2022-08-25T06:25:16;96638.72;;;21.86;50.35
74346;BME280;62776;50.518;6.732;2022-08-25T06:28:02;96648.88;;;21.95;50.32
74346;BME280;62776;50.518;6.732;2022-08-25T06:30:48;96644.63;;;22.08;50.00
74346;BME280;62776;50.518;6.732;2022-08-25T06:33:34;96650.94;;;22.21;49.64
74346;BME280;62776;50.518;6.732;2022-08-25T06:36:20;96652.13;;;22.31;49.36
74346;BME280;62776;50.518;6.732;2022-08-25T06:39:07;96660.19;;;22.45;49.35
74346;BME280;62776;50.518;6.732;2022-08-25T06:41:53;96657.09;;;22.53;49.07
74346;BME280;62776;50.518;6.732;2022-08-25T06:44:39;96654.03;;;22.60;49.42
74346;BME280;62776;50.518;6.732;2022-08-25T06:47:25;96651.47;;;22.74;49.19
74346;BME280;62776;50.518;6.732;2022-08-25T06:50:11;96650.09;;;22.83;49.22
74346;BME280;62776;50.518;6.732;2022-08-25T06:52:57;96653.09;;;22.92;49.30
74346;BME280;62776;50.518;6.732;2022-08-25T06:55:43;96657.59;;;23.06;49.17
74346;BME280;62776;50.518;6.732;2022-08-25T06:58:30;96655.25;;;23.16;49.43
74346;BME280;62776;50.518;6.732;2022-08-25T07:01:20;96652.75;;;23.28;49.24
74346;BME280;62776;50.518;6.732;2022-08-25T07:04:08;96653.06;;;23.38;49.04
74346;BME280;62776;50.518;6.732;2022-08-25T07:06:54;96654.91;;;23.52;49.04
74346;BME280;62776;50.518;6.732;2022-08-25T07:09:40;96650.84;;;23.60;48.98
74346;BME280;62776;50.518;6.732;2022-08-25T07:12:26;96657.72;;;23.78;48.97
74346;BME280;62776;50.518;6.732;2022-08-25T07:15:12;96657.13;;;23.87;49.42
74346;BME280;62776;50.518;6.732;2022-08-25T07:17:58;96660.19;;;23.95;49.39
74346;BME280;62776;50.518;6.732;2022-08-25T07:20:44;96663.03;;;24.06;49.49
74346;BME280;62776;50.518;6.732;2022-08-25T07:23:30;96659.84;;;24.16;49.39
74346;BME280;62776;50.518;6.732;2022-08-25T07:26:18;96658.78;;;24.32;49.12
74346;BME280;62776;50.518;6.732;2022-08-25T07:29:12;96653.66;;;24.43;48.94
74346;BME280;62776;50.518;6.732;2022-08-25T07:31:59;96661.69;;;24.56;48.76
74346;BME280;62776;50.518;6.732;2022-08-25T07:34:45;96662.81;;;24.66;48.73
74346;BME280;62776;50.518;6.732;2022-08-25T07:37:51;96661.25;;;24.76;49.07
74346;BME280;62776;50.518;6.732;2022-08-25T07:40:37;96662.31;;;24.88;48.86
74346;BME280;62776;50.518;6.732;2022-08-25T07:43:24;96662.47;;;24.99;48.73
74346;BME280;62776;50.518;6.732;2022-08-25T07:46:10;96666.88;;;25.12;47.75
74346;BME280;62776;50.518;6.732;2022-08-25T07:48:56;96667.88;;;25.24;48.05
74346;BME280;62776;50.518;6.732;2022-08-25T07:51:42;96660.09;;;25.34;47.17
74346;BME280;62776;50.518;6.732;2022-08-25T07:54:28;96662.16;;;25.43;47.21
74346;BME280;62776;50.518;6.732;2022-08-25T07:57:14;96654.22;;;25.55;46.91
74346;BME280;62776;50.518;6.732;2022-08-25T08:00:00;96657.84;;;25.67;46.47
74346;BME280;62776;50.518;6.732;2022-08-25T08:02:46;96657.03;;;25.79;46.34
74346;BME280;62776;50.518;6.732;2022-08-25T08:05:33;96659.03;;;25.88;46.08
74346;BME280;62776;50.518;6.732;2022-08-25T08:08:19;96659.25;;;25.98;46.09
74346;BME280;62776;50.518;6.732;2022-08-25T08:11:05;96659.56;;;26.06;45.92
74346;BME280;62776;50.518;6.732;2022-08-25T08:13:52;96651.94;;;26.14;45.45
74346;BME280;62776;50.518;6.732;2022-08-25T08:16:38;96649.56;;;26.22;45.88
74346;BME280;62776;50.518;6.732;2022-08-25T08:19:25;96646.06;;;26.34;45.87
74346;BME280;62776;50.518;6.732;2022-08-25T08:22:11;96646.22;;;26.44;45.56
74346;BME280;62776;50.518;6.732;2022-08-25T08:25:00;96637.56;;;26.53;44.37
74346;BME280;62776;50.518;6.732;2022-08-25T08:27:46;96635.63;;;26.55;44.30
74346;BME280;62776;50.518;6.732;2022-08-25T08:30:32;96632.81;;;26.69;43.87
74346;BME280;62776;50.518;6.732;2022-08-25T08:33:19;96633.03;;;26.78;43.97
74346;BME280;62776;50.518;6.732;2022-08-25T08:36:06;96630.63;;;26.86;43.54
74346;BME280;62776;50.518;6.732;2022-08-25T08:38:52;96622.69;;;26.98;43.90
74346;BME280;62776;50.518;6.732;2022-08-25T08:44:56;96621.47;;;27.25;43.87
74346;BME280;62776;50.518;6.732;2022-08-25T08:47:52;96627.84;;;27.35;43.45
74346;BME280;62776;50.518;6.732;2022-08-25T08:53:36;96615.28;;;27.48;42.54
74346;BME280;62776;50.518;6.732;2022-08-25T08:56:27;96620.44;;;27.63;42.57
74346;BME280;62776;50.518;6.732;2022-08-25T08:59:21;96617.88;;;27.72;42.25
74346;BME280;62776;50.518;6.732;2022-08-25T09:02:32;96612.78;;;27.80;41.96
74346;BME280;62776;50.518;6.732;2022-08-25T09:05:19;96609.56;;;27.88;40.75
74346;BME280;62776;50.518;6.732;2022-08-25T09:08:06;96607.84;;;27.98;40.87
74346;BME280;62776;50.518;6.732;2022-08-25T09:11:12;96606.41;;;28.05;39.66
74346;BME280;62776;50.518;6.732;2022-08-25T09:16:54;96603.72;;;28.16;39.88
74346;BME280;62776;50.518;6.732;2022-08-25T09:19:47;96608.22;;;28.27;39.53
74346;BME280;62776;50.518;6.732;2022-08-25T09:28:30;96608.84;;;28.30;38.90
74346;BME280;62776;50.518;6.732;2022-08-25T09:31:29;96603.25;;;28.44;38.25
74346;BME280;62776;50.518;6.732;2022-08-25T09:34:18;96601.16;;;28.59;38.20
74346;BME280;62776;50.518;6.732;2022-08-25T09:37:04;96605.53;;;28.71;37.44
74346;BME280;62776;50.518;6.732;2022-08-25T09:39:50;96599.69;;;28.77;35.51
74346;BME280;62776;50.518;6.732;2022-08-25T09:42:49;96608.53;;;28.89;35.93
74346;BME280;62776;50.518;6.732;2022-08-25T09:45:37;96605.47;;;28.93;35.60
74346;BME280;62776;50.518;6.732;2022-08-25T09:54:18;96600.22;;;29.03;35.68
74346;BME280;62776;50.518;6.732;2022-08-25T09:57:06;96593.28;;;29.00;33.87
74346;BME280;62776;50.518;6.732;2022-08-25T09:59:52;96588.25;;;29.07;34.74
74346;BME280;62776;50.518;6.732;2022-08-25T10:02:38;96580.88;;;29.20;35.16
74346;BME280;62776;50.518;6.732;2022-08-25T10:05:25;96580.16;;;29.29;34.79
74346;BME280;62776;50.518;6.732;2022-08-25T10:08:12;96579.66;;;29.35;35.01
74346;BME280;62776;50.518;6.732;2022-08-25T10:10:59;96578.28;;;29.41;33.87
74346;BME280;62776;50.518;6.732;2022-08-25T10:13:47;96584.78;;;29.48;33.97
74346;BME280;62776;50.518;6.732;2022-08-25T10:16:35;96579.69;;;29.45;33.52
74346;BME280;62776;50.518;6.732;2022-08-25T10:19:28;96582.56;;;29.32;34.25
74346;BME280;62776;50.518;6.732;2022-08-25T10:22:24;96569.69;;;29.26;34.56
74346;BME280;62776;50.518;6.732;2022-08-25T10:25:26;96565.19;;;29.27;33.99
74346;BME280;62776;50.518;6.732;2022-08-25T10:28:33;96562.72;;;29.35;33.92
74346;BME280;62776;50.518;6.732;2022-08-25T10:31:37;96547.97;;;29.40;34.10
74346;BME280;62776;50.518;6.732;2022-08-25T10:34:32;96551.34;;;29.63;34.23
74346;BME280;62776;50.518;6.732;2022-08-25T10:40:26;96551.47;;;29.82;33.08
74346;BME280;62776;50.518;6.732;2022-08-25T10:43:34;96539.97;;;29.91;32.23
74346;BME280;62776;50.518;6.732;2022-08-25T10:46:35;96536.34;;;30.02;31.75
74346;BME280;62776;50.518;6.732;2022-08-25T10:49:30;96535.50;;;30.11;32.35
74346;BME280;62776;50.518;6.732;2022-08-25T10:52:27;96543.34;;;30.23;32.39
74346;BME280;62776;50.518;6.732;2022-08-25T10:55:18;96526.88;;;30.37;31.74
74346;BME280;62776;50.518;6.732;2022-08-25T11:01:03;96526.63;;;30.50;30.70
74346;BME280;62776;50.518;6.732;2022-08-25T11:03:56;96511.53;;;30.59;31.78
74346;BME280;62776;50.518;6.732;2022-08-25T11:06:48;96523.00;;;30.70;31.40
74346;BME280;62776;50.518;6.732;2022-08-25T11:09:42;96514.50;;;30.75;31.12
74346;BME280;62776;50.518;6.732;2022-08-25T11:12:30;96511.69;;;30.76;30.13
74346;BME280;62776;50.518;6.732;2022-08-25T11:15:22;96505.88;;;30.71;30.95
74346;BME280;62776;50.518;6.732;2022-08-25T11:18:11;96508.13;;;30.66;30.20
74346;BME280;62776;50.518;6.732;2022-08-25T11:23:48;96509.41;;;30.72;31.53
74346;BME280;62776;50.518;6.732;2022-08-25T11:26:34;96509.84;;;30.86;30.65
74346;BME280;62776;50.518;6.732;2022-08-25T11:29:27;96502.38;;;30.90;30.82
74346;BME280;62776;50.518;6.732;2022-08-25T11:32:17;96507.91;;;30.98;30.98
74346;BME280;62776;50.518;6.732;2022-08-25T11:35:08;96497.28;;;31.16;31.62
74346;BME280;62776;50.518;6.732;2022-08-25T11:38:02;96498.72;;;31.20;30.32
74346;BME280;62776;50.518;6.732;2022-08-25T11:44:22;96494.56;;;31.44;28.42
74346;BME280;62776;50.518;6.732;2022-08-25T11:50:25;96490.16;;;31.43;28.38
74346;BME280;62776;50.518;6.732;2022-08-25T11:55:58;96484.19;;;31.59;29.49
74346;BME280;62776;50.518;6.732;2022-08-25T11:58:48;96477.25;;;31.66;29.10
74346;BME280;62776;50.518;6.732;2022-08-25T12:07:23;96462.00;;;31.67;27.36
74346;BME280;62776;50.518;6.732;2022-08-25T12:10:10;96471.84;;;31.76;28.78
74346;BME280;62776;50.518;6.732;2022-08-25T12:13:01;96467.13;;;31.87;28.63
74346;BME280;62776;50.518;6.732;2022-08-25T12:21:30;96454.63;;;31.96;27.95
74346;BME280;62776;50.518;6.732;2022-08-25T12:24:20;96451.81;;;31.97;26.99
74346;BME280;62776;50.518;6.732;2022-08-25T12:27:08;96453.22;;;32.01;27.28
74346;BME280;62776;50.518;6.732;2022-08-25T12:35:55;96450.66;;;32.27;27.00
74346;BME280;62776;50.518;6.732;2022-08-25T12:38:46;96441.75;;;32.27;26.45
74346;BME280;62776;50.518;6.732;2022-08-25T12:41:33;96450.16;;;32.14;26.30
74346;BME280;62776;50.518;6.732;2022-08-25T12:47:29;96427.63;;;32.25;26.79
74346;BME280;62776;50.518;6.732;2022-08-25T12:50:24;96436.75;;;32.32;27.53
74346;BME280;62776;50.518;6.732;2022-08-25T12:53:30;96437.38;;;32.43;27.28
74346;BME280;62776;50.518;6.732;2022-08-25T12:56:20;96434.00;;;32.41;26.86
74346;BME280;62776;50.518;6.732;2022-08-25T12:59:13;96435.25;;;32.47;26.57
74346;BME280;62776;50.518;6.732;2022-08-25T13:02:16;96430.25;;;32.52;26.90
74346;BME280;62776;50.518;6.732;2022-08-25T13:05:10;96431.88;;;32.62;26.72
74346;BME280;62776;50.518;6.732;2022-08-25T13:11:04;96432.88;;;32.79;26.99
74346;BME280;62776;50.518;6.732;2022-08-25T13:16:53;96433.72;;;32.62;26.42
74346;BME280;62776;50.518;6.732;2022-08-25T13:19:39;96421.94;;;32.28;26.26
74346;BME280;62776;50.518;6.732;2022-08-25T13:22:25;96413.31;;;32.24;27.05
74346;BME280;62776;50.518;6.732;2022-08-25T13:25:15;96419.38;;;32.26;26.31
74346;BME280;62776;50.518;6.732;2022-08-25T13:28:02;96407.53;;;32.19;26.20
74346;BME280;62776;50.518;6.732;2022-08-25T13:30:54;96400.75;;;32.15;26.36
74346;BME280;62776;50.518;6.732;2022-08-25T13:33:48;96401.38;;;32.27;26.21
74346;BME280;62776;50.518;6.732;2022-08-25T13:36:41;96401.72;;;32.41;26.01
74346;BME280;62776;50.518;6.732;2022-08-25T13:39:46;96405.31;;;32.50;25.66
74346;BME280;62776;50.518;6.732;2022-08-25T13:42:32;96398.09;;;32.33;25.18
74346;BME280;62776;50.518;6.732;2022-08-25T13:45:40;96398.22;;;32.31;25.92
74346;BME280;62776;50.518;6.732;2022-08-25T13:48:34;96398.50;;;32.55;25.76
74346;BME280;62776;50.518;6.732;2022-08-25T13:51:22;96393.66;;;32.59;25.06
74346;BME280;62776;50.518;6.732;2022-08-25T13:54:19;96384.91;;;32.83;25.15
74346;BME280;62776;50.518;6.732;2022-08-25T13:57:13;96385.38;;;33.73;24.16
74346;BME280;62776;50.518;6.732;2022-08-25T14:00:06;96386.06;;;33.49;24.50
74346;BME280;62776;50.518;6.732;2022-08-25T14:02:53;96388.34;;;33.10;24.78
74346;BME280;62776;50.518;6.732;2022-08-25T14:05:41;96388.09;;;32.78;25.56
74346;BME280;62776;50.518;6.732;2022-08-25T14:08:32;96380.66;;;33.75;24.83
74346;BME280;62776;50.518;6.732;2022-08-25T14:11:28;96370.44;;;35.25;23.47
74346;BME280;62776;50.518;6.732;2022-08-25T14:17:08;96371.47;;;37.32;21.29
74346;BME280;62776;50.518;6.732;2022-08-25T14:19:54;96362.16;;;37.93;19.92
74346;BME280;62776;50.518;6.732;2022-08-25T14:22:41;96363.56;;;38.60;19.83
74346;BME280;62776;50.518;6.732;2022-08-25T14:25:28;96372.22;;;39.34;19.07
74346;BME280;62776;50.518;6.732;2022-08-25T14:28:15;96359.72;;;39.74;18.10
74346;BME280;62776;50.518;6.732;2022-08-25T14:31:13;96355.75;;;40.17;17.89
74346;BME280;62776;50.518;6.732;2022-08-25T14:36:45;96363.72;;;41.18;17.60
74346;BME280;62776;50.518;6.732;2022-08-25T14:39:33;96357.88;;;40.95;16.49
74346;BME280;62776;50.518;6.732;2022-08-25T14:42:19;96360.81;;;41.40;17.02
74346;BME280;62776;50.518;6.732;2022-08-25T14:45:05;96353.03;;;41.50;16.71
74346;BME280;62776;50.518;6.732;2022-08-25T14:47:51;96345.81;;;41.82;16.17
74346;BME280;62776;50.518;6.732;2022-08-25T14:50:37;96349.28;;;42.21;16.24
74346;BME280;62776;50.518;6.732;2022-08-25T14:53:23;96350.13;;;42.53;15.74
74346;BME280;62776;50.518;6.732;2022-08-25T14:56:10;96346.19;;;42.80;15.98
74346;BME280;62776;50.518;6.732;2022-08-25T14:58:56;96337.97;;;43.12;15.58
74346;BME280;62776;50.518;6.732;2022-08-25T15:01:42;96344.94;;;43.32;15.63
74346;BME280;62776;50.518;6.732;2022-08-25T15:04:28;96335.50;;;43.10;15.13
74346;BME280;62776;50.518;6.732;2022-08-25T15:07:14;96339.47;;;43.08;15.07
74346;BME280;62776;50.518;6.732;2022-08-25T15:10:19;96329.28;;;42.90;15.15
74346;BME280;62776;50.518;6.732;2022-08-25T15:13:05;96333.91;;;42.96;15.43
74346;BME280;62776;50.518;6.732;2022-08-25T15:15:51;96333.25;;;41.74;15.42
74346;BME280;62776;50.518;6.732;2022-08-25T15:18:37;96331.56;;;41.60;15.71
74346;BME280;62776;50.518;6.732;2022-08-25T15:21:23;96330.81;;;41.40;16.25
74346;BME280;62776;50.518;6.732;2022-08-25T15:24:10;96341.03;;;40.72;17.15
74346;BME280;62776;50.518;6.732;2022-08-25T15:26:58;96329.22;;;38.53;19.04
74346;BME280;62776;50.518;6.732;2022-08-25T15:29:44;96334.31;;;37.03;20.82
74346;BME280;62776;50.518;6.732;2022-08-25T15:32:30;96335.69;;;36.00;21.92
74346;BME280;62776;50.518;6.732;2022-08-25T15:35:16;96327.38;;;35.24;23.09
74346;BME280;62776;50.518;6.732;2022-08-25T15:38:02;96328.78;;;34.71;23.69
74346;BME280;62776;50.518;6.732;2022-08-25T15:40:48;96328.06;;;34.29;24.10
74346;BME280;62776;50.518;6.732;2022-08-25T15:43:35;96326.09;;;33.89;24.06
74346;BME280;62776;50.518;6.732;2022-08-25T15:46:21;96334.13;;;33.65;24.95
74346;BME280;62776;50.518;6.732;2022-08-25T15:49:08;96321.34;;;33.41;24.82
74346;BME280;62776;50.518;6.732;2022-08-25T15:51:55;96329.63;;;33.14;25.38
74346;BME280;62776;50.518;6.732;2022-08-25T15:54:41;96338.31;;;32.82;25.47
74346;BME280;62776;50.518;6.732;2022-08-25T15:57:27;96331.44;;;32.62;25.92
74346;BME280;62776;50.518;6.732;2022-08-25T16:00:13;96332.56;;;32.42;25.92
74346;BME280;62776;50.518;6.732;2022-08-25T16:02:59;96334.34;;;32.16;26.41
74346;BME280;62776;50.518;6.732;2022-08-25T16:05:45;96332.75;;;31.95;26.74
74346;BME280;62776;50.518;6.732;2022-08-25T16:08:31;96331.63;;;31.80;27.03
74346;BME280;62776;50.518;6.732;2022-08-25T16:11:19;96332.41;;;31.63;27.29